Cinque Terre — IUTV — position and weather

sailwx.info

Track history (hours):
 
Tides and Currents Weather Stations Pressure Air Temp Water Temp Dewpoint Dewpoint Depression Visibility Wind Speed Wind Dir Waves Ship Positions

Cinque Terre

Last reported at 2015-Aug-31 08:03 UTC. Time now 2015-Aug-31 13:19 UTC.
Position N 40°33' E 014°14'.

Length 15 m; draft 1 m.

Type: Passenger vessel. MMSI: 247208400.

Date/timePositionNaut miles runAvg speedWind from/ knotsBaromVisibWave heightAir tempDewpointWater temp
2015-Aug-31 08:03N 40°33' E 014°14'6 0.4
2015-Aug-30 16:33N 40°37' E 014°20'1 1.2
2015-Aug-30 15:33N 40°36' E 014°19'5 5.0
2015-Aug-30 14:33N 40°32' E 014°14'1 1.2
2015-Aug-30 13:33N 40°33' E 014°15'1 1.0
2015-Aug-30 12:33N 40°33' E 014°15'0 0.0
2015-Aug-30 11:33N 40°33' E 014°15'0 0.0
2015-Aug-30 10:33N 40°33' E 014°15'0 0.0
2015-Aug-30 09:33N 40°33' E 014°15'0 0.0
2015-Aug-30 08:33N 40°33' E 014°15'1 1.2
2015-Aug-30 07:33N 40°34' E 014°15'6 5.5
2015-Aug-30 06:33N 40°38' E 014°20'1 0.1
2015-Aug-29 16:33N 40°37' E 014°20'0 0.1
2015-Aug-29 15:33N 40°37' E 014°20'7 5.9
2015-Aug-29 14:17N 40°32' E 014°12'3 3.4
2015-Aug-29 13:33N 40°34' E 014°15'1 0.2
2015-Aug-29 07:33N 40°34' E 014°16'6 4.7
2015-Aug-29 06:23N 40°38' E 014°21'2 0.1
2015-Aug-28 16:24N 40°37' E 014°20'0 0.0
2015-Aug-28 15:31N 40°37' E 014°20'7 6.0
2015-Aug-28 14:17N 40°32' E 014°12'3 3.6
2015-Aug-28 13:33N 40°34' E 014°15'0 0.0
2015-Aug-28 07:33N 40°33' E 014°15'6 6.2
2015-Aug-28 06:32N 40°38' E 014°21'1 0.1
2015-Aug-27 17:33N 40°37' E 014°20'0 0.0
2015-Aug-27 16:17N 40°37' E 014°20'0 0.5
2015-Aug-27 15:33N 40°36' E 014°20'7 5.4
2015-Aug-27 14:15N 40°33' E 014°12'3 4.5
2015-Aug-27 13:33N 40°34' E 014°16'0 0.1
2015-Aug-27 07:33N 40°34' E 014°15'5 0.3
2015-Aug-26 16:25N 40°37' E 014°20'0 0.3
2015-Aug-26 15:33N 40°36' E 014°20'5 0.6
2015-Aug-26 07:33N 40°33' E 014°15'7 6.5
2015-Aug-26 06:32N 40°38' E 014°21'2 0.1
2015-Aug-25 16:11N 40°37' E 014°20'0 0.0
2015-Aug-25 15:33N 40°37' E 014°20'6 4.2
2015-Aug-25 14:13N 40°32' E 014°15'1 1.5
2015-Aug-25 13:32N 40°33' E 014°15'0 0.0
2015-Aug-25 07:32N 40°34' E 014°15'7 6.5
2015-Aug-25 06:32N 40°38' E 014°21'2 0.1
2015-Aug-24 15:33N 40°37' E 014°20'8 5.9
2015-Aug-24 14:15N 40°32' E 014°12'3 3.9
2015-Aug-24 13:34N 40°34' E 014°15'0 0.1
2015-Aug-24 11:33N 40°33' E 014°15'0 0.0
2015-Aug-24 10:33N 40°33' E 014°15'0 0.0
2015-Aug-24 09:33N 40°33' E 014°15'0 0.0
2015-Aug-24 08:33N 40°33' E 014°15'2 1.9
2015-Aug-24 07:26N 40°34' E 014°18'3 0.2
2015-Aug-23 16:24N 40°37' E 014°20'0 0.0
2015-Aug-23 15:32N 40°37' E 014°20'8 5.5
2015-Aug-23 14:11N 40°33' E 014°12'3 4.1
2015-Aug-23 13:33N 40°33' E 014°15'0 0.1
2015-Aug-23 10:34N 40°33' E 014°15'0 0.0
2015-Aug-23 09:33N 40°33' E 014°15'0 0.0
2015-Aug-23 08:33N 40°33' E 014°15'1 1.2
2015-Aug-23 07:32N 40°34' E 014°16'5 5.3
2015-Aug-23 06:33N 40°38' E 014°21'2 0.1
2015-Aug-22 16:28N 40°37' E 014°20'0 0.0
2015-Aug-22 15:33N 40°37' E 014°20'8 5.8
2015-Aug-22 14:15N 40°32' E 014°12'3 3.8
2015-Aug-22 13:33N 40°33' E 014°15'0 0.2
2015-Aug-22 12:33N 40°33' E 014°15'0 0.0
2015-Aug-22 11:33N 40°33' E 014°15'6 5.8
2015-Aug-22 10:32N 40°39' E 014°17'1 0.6
2015-Aug-22 08:17N 40°38' E 014°18'5 6.2
2015-Aug-22 07:33N 40°34' E 014°15'6 6.4
2015-Aug-22 06:33N 40°38' E 014°21'2 0.1
2015-Aug-21 16:30N 40°37' E 014°20'2 1.9
2015-Aug-21 15:32N 40°35' E 014°18'6 4.6
2015-Aug-21 14:21N 40°33' E 014°12'3 3.4
2015-Aug-21 13:34N 40°34' E 014°15'  
Track history (hours):
 
Tides and Currents Weather Stations Pressure Air Temp Water Temp Dewpoint Dewpoint Depression Visibility Wind Speed Wind Dir Waves Ship Positions

Cinque Terre

Last reported at 2015-Aug-31 08:03 UTC. Time now 2015-Aug-31 13:19 UTC.
Position N 40°33' E 014°14'.

Length 15 m; draft 1 m.

Type: Passenger vessel. MMSI: 247208400.

Date/timePositionNaut miles runAvg speedWind from/ knotsBaromVisibWave heightAir tempDewpointWater temp
2015-Aug-31 08:03N 40°33' E 014°14'6 0.4
2015-Aug-30 16:33N 40°37' E 014°20'1 1.2
2015-Aug-30 15:33N 40°36' E 014°19'5 5.0
2015-Aug-30 14:33N 40°32' E 014°14'1 1.2
2015-Aug-30 13:33N 40°33' E 014°15'1 1.0
2015-Aug-30 12:33N 40°33' E 014°15'0 0.0
2015-Aug-30 11:33N 40°33' E 014°15'0 0.0
2015-Aug-30 10:33N 40°33' E 014°15'0 0.0
2015-Aug-30 09:33N 40°33' E 014°15'0 0.0
2015-Aug-30 08:33N 40°33' E 014°15'1 1.2
2015-Aug-30 07:33N 40°34' E 014°15'6 5.5
2015-Aug-30 06:33N 40°38' E 014°20'1 0.1
2015-Aug-29 16:33N 40°37' E 014°20'0 0.1
2015-Aug-29 15:33N 40°37' E 014°20'7 5.9
2015-Aug-29 14:17N 40°32' E 014°12'3 3.4
2015-Aug-29 13:33N 40°34' E 014°15'1 0.2
2015-Aug-29 07:33N 40°34' E 014°16'6 4.7
2015-Aug-29 06:23N 40°38' E 014°21'2 0.1
2015-Aug-28 16:24N 40°37' E 014°20'0 0.0
2015-Aug-28 15:31N 40°37' E 014°20'7 6.0
2015-Aug-28 14:17N 40°32' E 014°12'3 3.6
2015-Aug-28 13:33N 40°34' E 014°15'0 0.0
2015-Aug-28 07:33N 40°33' E 014°15'6 6.2
2015-Aug-28 06:32N 40°38' E 014°21'1 0.1
2015-Aug-27 17:33N 40°37' E 014°20'0 0.0
2015-Aug-27 16:17N 40°37' E 014°20'0 0.5
2015-Aug-27 15:33N 40°36' E 014°20'7 5.4
2015-Aug-27 14:15N 40°33' E 014°12'3 4.5
2015-Aug-27 13:33N 40°34' E 014°16'0 0.1
2015-Aug-27 07:33N 40°34' E 014°15'5 0.3
2015-Aug-26 16:25N 40°37' E 014°20'0 0.3
2015-Aug-26 15:33N 40°36' E 014°20'5 0.6
2015-Aug-26 07:33N 40°33' E 014°15'7 6.5
2015-Aug-26 06:32N 40°38' E 014°21'2 0.1
2015-Aug-25 16:11N 40°37' E 014°20'0 0.0
2015-Aug-25 15:33N 40°37' E 014°20'6 4.2
2015-Aug-25 14:13N 40°32' E 014°15'1 1.5
2015-Aug-25 13:32N 40°33' E 014°15'0 0.0
2015-Aug-25 07:32N 40°34' E 014°15'7 6.5
2015-Aug-25 06:32N 40°38' E 014°21'2 0.1
2015-Aug-24 15:33N 40°37' E 014°20'8 5.9
2015-Aug-24 14:15N 40°32' E 014°12'3 3.9
2015-Aug-24 13:34N 40°34' E 014°15'0 0.1
2015-Aug-24 11:33N 40°33' E 014°15'0 0.0
2015-Aug-24 10:33N 40°33' E 014°15'0 0.0
2015-Aug-24 09:33N 40°33' E 014°15'0 0.0
2015-Aug-24 08:33N 40°33' E 014°15'2 1.9
2015-Aug-24 07:26N 40°34' E 014°18'3 0.2
2015-Aug-23 16:24N 40°37' E 014°20'0 0.0
2015-Aug-23 15:32N 40°37' E 014°20'8 5.5
2015-Aug-23 14:11N 40°33' E 014°12'3 4.1
2015-Aug-23 13:33N 40°33' E 014°15'0 0.1
2015-Aug-23 10:34N 40°33' E 014°15'0 0.0
2015-Aug-23 09:33N 40°33' E 014°15'0 0.0
2015-Aug-23 08:33N 40°33' E 014°15'1 1.2
2015-Aug-23 07:32N 40°34' E 014°16'5 5.3
2015-Aug-23 06:33N 40°38' E 014°21'2 0.1
2015-Aug-22 16:28N 40°37' E 014°20'0 0.0
2015-Aug-22 15:33N 40°37' E 014°20'8 5.8
2015-Aug-22 14:15N 40°32' E 014°12'3 3.8
2015-Aug-22 13:33N 40°33' E 014°15'0 0.2
2015-Aug-22 12:33N 40°33' E 014°15'0 0.0
2015-Aug-22 11:33N 40°33' E 014°15'6 5.8
2015-Aug-22 10:32N 40°39' E 014°17'1 0.6
2015-Aug-22 08:17N 40°38' E 014°18'5 6.2
2015-Aug-22 07:33N 40°34' E 014°15'6 6.4
2015-Aug-22 06:33N 40°38' E 014°21'2 0.1
2015-Aug-21 16:30N 40°37' E 014°20'2 1.9
2015-Aug-21 15:32N 40°35' E 014°18'6 4.6
2015-Aug-21 14:21N 40°33' E 014°12'3 3.4
2015-Aug-21 13:34N 40°34' E 014°15'  

Dump ship's entire track history